Сообщение об ошибке

  • Warning: ini_set(): Headers already sent. You cannot change the session module's ini settings at this time in drupal_environment_initialize() (line 699 of /home/a/auditpro/2.auditpro.beget.tech/public_html/st/includes/bootstrap.inc).
  • Warning: ini_set(): Headers already sent. You cannot change the session module's ini settings at this time in drupal_environment_initialize() (line 700 of /home/a/auditpro/2.auditpro.beget.tech/public_html/st/includes/bootstrap.inc).
  • Warning: ini_set(): Headers already sent. You cannot change the session module's ini settings at this time in drupal_environment_initialize() (line 701 of /home/a/auditpro/2.auditpro.beget.tech/public_html/st/includes/bootstrap.inc).
  • Warning: ini_set(): Headers already sent. You cannot change the session module's ini settings at this time in drupal_environment_initialize() (line 704 of /home/a/auditpro/2.auditpro.beget.tech/public_html/st/includes/bootstrap.inc).
  • Warning: ini_set(): Headers already sent. You cannot change the session module's ini settings at this time in drupal_environment_initialize() (line 706 of /home/a/auditpro/2.auditpro.beget.tech/public_html/st/includes/bootstrap.inc).
  • Warning: ini_set(): Headers already sent. You cannot change the session module's ini settings at this time in include_once() (line 290 of /home/a/auditpro/2.auditpro.beget.tech/public_html/st/sites/default/settings.php).
  • Warning: ini_set(): Headers already sent. You cannot change the session module's ini settings at this time in include_once() (line 291 of /home/a/auditpro/2.auditpro.beget.tech/public_html/st/sites/default/settings.php).
  • Warning: ini_set(): Headers already sent. You cannot change the session module's ini settings at this time in include_once() (line 299 of /home/a/auditpro/2.auditpro.beget.tech/public_html/st/sites/default/settings.php).
  • Warning: ini_set(): Headers already sent. You cannot change the session module's ini settings at this time in include_once() (line 306 of /home/a/auditpro/2.auditpro.beget.tech/public_html/st/sites/default/settings.php).
  • Warning: ini_set(): Headers already sent. You cannot change the session module's ini settings at this time in drupal_settings_initialize() (line 826 of /home/a/auditpro/2.auditpro.beget.tech/public_html/st/includes/bootstrap.inc).
  • Warning: ini_set(): Headers already sent. You cannot change the session module's ini settings at this time in drupal_settings_initialize() (line 835 of /home/a/auditpro/2.auditpro.beget.tech/public_html/st/includes/bootstrap.inc).
  • Warning: session_name(): Cannot change session name when headers already sent in drupal_settings_initialize() (line 838 of /home/a/auditpro/2.auditpro.beget.tech/public_html/st/includes/bootstrap.inc).

Кологрив

СКИДКИ НА СМАРТФОНЫ!

Карта отелей и гостиниц, располагающихся рядом с аэропортом Кологрив :

Кологрив Костромская область 58° 50' 28.0212" N, 44° 19' 25.14" E
Код аэродрома ИКАО
ZA5O
Код аэродрома RU
ЗА5О
Координаты
N58.84112° E044.32365°
Превышение над уровнем моря
155
Основная полоса
12/30
Курс магнитный
116,9/296,9
Длина основной ВПП
550
Ширина основной ВПП
18
Покрытие основной ВПП
Твёрдое (асфальт)
Освещение ВПП
Нет
Тип: 
Аэродром
Класс аэродрома: 
Принадлежность: 
ГА
Статус: 
Недействующий
Сайт: 
E-mail аэродрома: 
Страна: 
Россия
Регион: 
Костромская область
Город: 
Дополнительная информация: 
Площадка АХР. Нкр.=(300)м.

Скидки на навигаторы!

Найти трансфер

С помощью этой формы Вы можете найти трансфер из аэропорта Кологрив в город, аэропорт или вокзал:

Погода в аэропортах:

Авиационная погода в Витебске

Регион: 
Погода METAR: 
UMII 301021Z 20009G13MPS 4400 -SN BLSN OVC009 M01/M02 Q0995 TEMPO 2000 SN BKN005
Время наблюдения
2023-01-30T10:21:00Z
Температура C
-1.0
Точка росы
-2.0
Направление ветра
200
Скорость ветра (узлы)
17
Метео видимость
2.73
Облачность
OVC
Нижняя граница облачности (футы)
900
Явления погоды
-SN BLSN
Условия полета
IFR
OVC – сплошная облачность;
-SN – слабый снег, BLSN – метель низовая или общая;

Авиационная погода в Бресте

Регион: 
Погода METAR: 
UMBB 301015Z 22008G11MPS 2100 -SHSNRA OVC013CB 00/M03 Q1001 NOSIG
Время наблюдения
2023-01-30T10:15:00Z
Температура C
0.0
Точка росы
-3.0
Направление ветра
220
Скорость ветра (узлы)
16
Метео видимость
1.3
Облачность
OVC
Нижняя граница облачности (футы)
1300
Явления погоды
-SHSN -SHRA
Условия полета
IFR
Аэропорт подробнее: 
OVC – сплошная облачность;
-SHRA - слабый ливневой дождь; -SHSN - слабый ливневой снег;

Авиационная погода в Нижнекамске

Регион: 
Погода METAR: 
UWKE 301930Z 20007MPS 6000 -SN BLSN BKN010 OVC021 M05/M06 Q1009 RESN R21/421539 NOSIG RMK QFE740/0987
Время наблюдения
2023-01-30T19:30:00Z
Температура C
-5.0
Точка росы
-6.0
Направление ветра
200
Скорость ветра (узлы)
14
Метео видимость
3.73
Облачность
BKN
OVC
Нижняя граница облачности (футы)
1000
2100
Явления погоды
-SN BLSN
Условия полета
MVFR
Аэропорт подробнее: 
BKN – значительная (рассеянная, разорванная) облачность; OVC – сплошная облачность;
-SN – слабый снег, BLSN – метель низовая или общая;

Авиационная погода в Брянске

Регион: 
Погода METAR: 
UUBP 301930Z AUTO 19006MPS 3400 -SN ///007 M02/M02 Q0999 NOSIG RMK QFE732/0976
Время наблюдения
2023-01-30T19:30:00Z
Температура C
-2.0
Точка росы
-2.0
Направление ветра
190
Скорость ветра (узлы)
12
Метео видимость
2.11
Облачность
Нижняя граница облачности (футы)
Явления погоды
-SN
Условия полета
Аэропорт подробнее: 
-SN – слабый снег;